Time;durP1;ratioP1;P1;durP2;ratioP2;P2;SDS_P1;SDS_P2;PMS_P1;PMS_P2;Temp;Humidity;BMP_temperature;BMP_pressure;BME280_temperature;BME280_humidity;BME280_pressure;Samples;Min_cycle;Max_cycle;Signal;HPM_P1;HPM_P2
2023/09/25 00:00:35;;;;;;;0.50;0.50;;;;;;;11.54;100.00;100749.00;4969512;28;20031;-66
2023/09/25 00:03:02;;;;;;;0.50;0.50;;;;;;;11.46;100.00;100745.66;4969835;28;20018;-67
2023/09/25 00:05:29;;;;;;;0.50;0.50;;;;;;;11.41;100.00;100743.13;4953740;28;20031;-66
2023/09/25 00:07:54;;;;;;;0.50;0.50;;;;;;;11.38;100.00;100740.50;4950782;29;20031;-66
2023/09/25 00:10:21;;;;;;;0.50;0.50;;;;;;;11.39;100.00;100749.38;4954341;28;20502;-66
2023/09/25 00:12:47;;;;;;;0.50;0.50;;;;;;;11.36;100.00;100752.13;4968046;28;20073;-66
2023/09/25 00:15:13;;;;;;;0.50;0.50;;;;;;;11.30;100.00;100749.63;4951422;28;20054;-65
2023/09/25 00:17:40;;;;;;;0.57;0.57;;;;;;;11.34;100.00;100751.28;4953693;29;20023;-66
2023/09/25 00:20:10;;;;;;;0.50;0.50;;;;;;;11.33;100.00;100745.09;4955662;28;20081;-66
2023/09/25 00:22:42;;;;;;;0.40;0.40;;;;;;;11.31;100.00;100743.38;4972125;28;20035;-67
2023/09/25 00:25:08;;;;;;;0.50;0.50;;;;;;;11.28;100.00;100744.34;4973130;28;20042;-67
2023/09/25 00:27:33;;;;;;;0.50;0.50;;;;;;;11.28;100.00;100752.31;4973135;28;20477;-67
2023/09/25 00:30:00;;;;;;;0.40;0.40;;;;;;;11.31;100.00;100751.38;4964386;28;20050;-66
2023/09/25 00:32:26;;;;;;;0.40;0.40;;;;;;;11.28;100.00;100754.09;4953685;29;20087;-66
2023/09/25 00:34:52;;;;;;;0.50;0.50;;;;;;;11.25;100.00;100744.38;4956049;28;20034;-66
2023/09/25 00:37:18;;;;;;;0.47;0.47;;;;;;;11.28;100.00;100755.00;4953683;28;20031;-66
2023/09/25 00:39:44;;;;;;;0.50;0.50;;;;;;;11.27;100.00;100747.88;4953655;29;20031;-66
2023/09/25 00:42:10;;;;;;;0.50;0.50;;;;;;;11.25;100.00;100748.84;4971535;28;20037;-66
2023/09/25 00:44:36;;;;;;;0.50;0.50;;;;;;;11.16;100.00;100749.06;4966142;28;20024;-67
2023/09/25 00:47:03;;;;;;;0.50;0.50;;;;;;;11.19;100.00;100759.63;4972866;28;20034;-65
2023/09/25 00:49:30;;;;;;;0.50;0.50;;;;;;;11.18;100.00;100757.88;4972749;28;20027;-60
2023/09/25 00:51:57;;;;;;;0.50;0.50;;;;;;;11.21;100.00;100757.81;4972665;28;20368;-61
2023/09/25 00:54:23;;;;;;;0.50;0.50;;;;;;;11.17;100.00;100753.50;4962921;28;20042;-61
2023/09/25 00:56:50;;;;;;;0.50;0.50;;;;;;;11.12;100.00;100747.41;4972024;28;20474;-60
2023/09/25 00:59:16;;;;;;;0.52;0.52;;;;;;;11.11;100.00;100743.84;4965250;28;20030;-60
2023/09/25 01:01:42;;;;;;;0.50;0.50;;;;;;;11.09;100.00;100752.75;4958363;28;20027;-60
2023/09/25 01:04:08;;;;;;;0.50;0.50;;;;;;;11.12;100.00;100747.41;4969176;28;20031;-60
2023/09/25 01:06:34;;;;;;;0.50;0.50;;;;;;;11.13;100.00;100749.13;4964107;28;20093;-60
2023/09/25 01:08:59;;;;;;;0.50;0.50;;;;;;;11.12;100.00;100742.91;4972480;28;20034;-60
2023/09/25 01:11:25;;;;;;;0.60;0.60;;;;;;;11.10;100.00;100738.56;4964224;28;20710;-60
2023/09/25 01:13:50;;;;;;;0.50;0.50;;;;;;;11.10;100.00;100738.56;4957620;28;20046;-60
2023/09/25 01:16:16;;;;;;;0.50;0.50;;;;;;;10.92;100.00;100729.22;4970693;28;20692;-60
2023/09/25 01:18:42;;;;;;;0.50;0.50;;;;;;;10.85;100.00;100742.69;4954548;28;20035;-60
2023/09/25 01:21:08;;;;;;;0.50;0.50;;;;;;;10.77;100.00;100734.00;4953620;28;20035;-59
2023/09/25 01:23:33;;;;;;;0.57;0.57;;;;;;;10.75;100.00;100730.47;4962534;28;20038;-60
2023/09/25 01:25:59;;;;;;;0.60;0.60;;;;;;;10.74;100.00;100724.28;4953005;29;20019;-59
2023/09/25 01:28:25;;;;;;;0.60;0.60;;;;;;;10.71;100.00;100728.81;4952271;28;20047;-60
2023/09/25 01:30:50;;;;;;;0.50;0.50;;;;;;;10.68;100.00;100736.84;4955159;28;20110;-60
2023/09/25 01:33:15;;;;;;;0.60;0.60;;;;;;;10.67;100.00;100735.09;4952847;29;20347;-60
2023/09/25 01:35:41;;;;;;;0.50;0.50;;;;;;;10.61;100.00;100731.66;4955156;28;20036;-59
2023/09/25 01:38:07;;;;;;;0.50;0.50;;;;;;;10.58;100.00;100728.19;4952654;28;20061;-60
2023/09/25 01:40:33;;;;;;;0.60;0.60;;;;;;;10.64;100.00;100728.94;4956152;28;20439;-61
2023/09/25 01:42:59;;;;;;;0.60;0.60;;;;;;;10.63;100.00;100732.50;4953238;28;20118;-60
2023/09/25 01:45:24;;;;;;;0.50;0.50;;;;;;;10.57;100.00;100729.09;4961448;28;20015;-59
2023/09/25 01:47:52;;;;;;;0.55;0.55;;;;;;;10.55;100.00;100729.13;4971778;28;20031;-60
2023/09/25 01:50:21;;;;;;;0.60;0.60;;;;;;;10.49;100.00;100728.41;4966714;28;20034;-60
2023/09/25 01:52:50;;;;;;;0.60;0.60;;;;;;;10.48;100.00;100710.66;4952397;28;20026;-60
2023/09/25 01:55:16;;;;;;;0.60;0.60;;;;;;;10.46;100.00;100713.34;4961294;28;20669;-60
2023/09/25 01:57:42;;;;;;;0.52;0.52;;;;;;;10.46;100.00;100716.03;4971610;28;20125;-60
2023/09/25 02:00:09;;;;;;;0.60;0.60;;;;;;;10.41;100.00;100704.59;4965149;28;20062;-59
2023/09/25 02:02:35;;;;;;;0.60;0.60;;;;;;;10.46;100.00;100713.34;4971370;28;20106;-61
2023/09/25 02:05:00;;;;;;;0.60;0.60;;;;;;;10.41;100.00;100711.72;4966682;28;20019;-60
2023/09/25 02:07:26;;;;;;;0.60;0.60;;;;;;;10.33;100.00;100706.53;4960070;28;20042;-61
2023/09/25 02:09:51;;;;;;;0.60;0.60;;;;;;;10.28;100.00;100713.75;4971261;28;20064;-59
2023/09/25 02:12:16;;;;;;;0.60;0.60;;;;;;;10.26;100.00;100707.56;4956183;28;20089;-59
2023/09/25 02:14:42;;;;;;;0.60;0.60;;;;;;;10.21;100.00;100704.13;4951359;29;20118;-60
2023/09/25 02:17:07;;;;;;;0.60;0.60;;;;;;;10.17;100.00;100694.47;4954603;28;20038;-59
2023/09/25 02:19:33;;;;;;;0.50;0.50;;;;;;;10.22;100.00;100697.94;4952816;28;20085;-60
2023/09/25 02:21:58;;;;;;;0.60;0.60;;;;;;;10.19;100.00;100698.00;4970297;28;20023;-60
2023/09/25 02:24:24;;;;;;;0.60;0.60;;;;;;;10.18;100.00;100698.03;4967337;28;20467;-60
2023/09/25 02:26:49;;;;;;;0.60;0.60;;;;;;;10.15;100.00;100685.66;4971281;28;20379;-60
2023/09/25 02:29:14;;;;;;;0.60;0.60;;;;;;;10.12;100.00;100688.38;4967056;28;20026;-60
2023/09/25 02:31:40;;;;;;;0.60;0.60;;;;;;;10.14;100.00;100683.03;4970434;28;20499;-60
2023/09/25 02:34:06;;;;;;;0.60;0.60;;;;;;;10.15;100.00;100690.09;4971196;28;20023;-59
2023/09/25 02:36:33;;;;;;;0.60;0.60;;;;;;;10.19;100.00;100690.03;4954507;28;20046;-60
2023/09/25 02:38:59;;;;;;;0.60;0.60;;;;;;;10.23;100.00;100680.19;4951461;28;20034;-60
2023/09/25 02:41:25;;;;;;;0.50;0.50;;;;;;;10.25;100.00;100684.56;4964071;28;20031;-60
2023/09/25 02:43:50;;;;;;;0.60;0.60;;;;;;;10.24;100.00;100669.53;4968796;28;20025;-60
2023/09/25 02:46:15;;;;;;;0.60;0.60;;;;;;;10.23;100.00;100683.72;4952491;28;20029;-60
2023/09/25 02:48:41;;;;;;;0.60;0.60;;;;;;;10.08;100.00;100688.47;4951534;29;20395;-60
2023/09/25 02:51:06;;;;;;;0.60;0.60;;;;;;;9.93;100.00;100679.00;4953671;28;20131;-60
2023/09/25 02:53:32;;;;;;;0.50;0.50;;;;;;;9.89;100.00;100674.63;4951440;29;20931;-60
2023/09/25 02:55:57;;;;;;;0.50;0.50;;;;;;;9.93;100.00;100684.31;4965936;28;20050;-60
2023/09/25 02:58:22;;;;;;;0.55;0.55;;;;;;;9.94;100.00;100670.09;4969869;28;20097;-60
2023/09/25 03:00:49;;;;;;;0.60;0.60;;;;;;;9.92;100.00;100681.66;4957345;28;20038;-60
2023/09/25 03:03:14;;;;;;;0.70;0.70;;;;;;;9.95;100.00;100671.00;4970148;28;20027;-60
2023/09/25 03:05:40;;;;;;;0.60;0.60;;;;;;;9.91;100.00;100677.25;4966823;28;20033;-60
2023/09/25 03:08:05;;;;;;;0.60;0.60;;;;;;;9.90;100.00;100679.03;4970645;28;20034;-66
2023/09/25 03:10:30;;;;;;;0.60;0.60;;;;;;;9.88;100.00;100686.19;4967616;28;20120;-66
2023/09/25 03:12:56;;;;;;;0.60;0.60;;;;;;;9.91;100.00;100686.13;4951338;28;20044;-66
2023/09/25 03:15:21;;;;;;;0.60;0.60;;;;;;;9.93;100.00;100694.94;4959260;28;20030;-66
2023/09/25 03:17:46;;;;;;;0.60;0.60;;;;;;;9.95;100.00;100690.44;4961599;28;20548;-66
2023/09/25 03:20:15;;;;;;;0.60;0.60;;;;;;;9.96;100.00;100688.69;4970607;28;20031;-66
2023/09/25 03:22:45;;;;;;;0.60;0.60;;;;;;;9.94;100.00;100691.38;4969334;28;20477;-66
2023/09/25 03:25:13;;;;;;;0.60;0.60;;;;;;;9.92;100.00;100693.16;4956828;28;20039;-66
2023/09/25 03:27:38;;;;;;;0.60;0.60;;;;;;;9.92;100.00;100698.47;4951078;28;20055;-66
2023/09/25 03:30:06;;;;;;;0.60;0.60;;;;;;;9.93;100.00;100694.94;4964059;28;20075;-65
2023/09/25 03:32:32;;;;;;;0.70;0.70;;;;;;;9.91;100.00;100696.75;4970352;28;20046;-66
2023/09/25 03:34:58;;;;;;;0.60;0.60;;;;;;;9.89;100.00;100687.91;4970136;28;20110;-65
2023/09/25 03:37:23;;;;;;;0.70;0.70;;;;;;;9.89;100.00;100689.69;4954116;28;20118;-65
2023/09/25 03:39:48;;;;;;;0.60;0.60;;;;;;;9.86;100.00;100682.66;4950108;29;20027;-65
2023/09/25 03:42:14;;;;;;;0.60;0.60;;;;;;;9.86;100.00;100687.09;4968814;28;20396;-65
2023/09/25 03:44:39;;;;;;;0.60;0.60;;;;;;;9.85;100.00;100688.00;4965576;28;20037;-66
2023/09/25 03:47:05;;;;;;;0.60;0.60;;;;;;;9.76;100.00;100693.47;4969469;28;20033;-66
2023/09/25 03:49:31;;;;;;;0.70;0.70;;;;;;;9.74;100.00;100693.50;4967478;28;20057;-66
2023/09/25 03:51:56;;;;;;;0.60;0.60;;;;;;;9.73;100.00;100697.09;4953294;28;20034;-67
2023/09/25 03:54:21;;;;;;;0.60;0.60;;;;;;;9.70;100.00;100705.13;4956256;28;20428;-66
2023/09/25 03:56:47;;;;;;;0.60;0.60;;;;;;;9.69;100.00;100706.00;4962746;28;20038;-66
2023/09/25 03:59:13;;;;;;;0.60;0.60;;;;;;;9.69;100.00;100708.66;4962421;28;20524;-66
2023/09/25 04:01:38;;;;;;;0.70;0.70;;;;;;;9.65;100.00;100714.94;4973018;28;20030;-67
2023/09/25 04:04:05;;;;;;;0.70;0.70;;;;;;;9.66;100.00;100715.81;4973353;28;20031;-66
2023/09/25 04:06:32;;;;;;;0.60;0.60;;;;;;;9.56;100.00;100703.59;4957761;28;20045;-66
2023/09/25 04:08:57;;;;;;;0.60;0.60;;;;;;;9.61;100.00;100721.22;4953186;29;20031;-66
2023/09/25 04:11:23;;;;;;;0.60;0.60;;;;;;;9.61;100.00;100723.88;4964630;28;20045;-67
2023/09/25 04:13:48;;;;;;;0.70;0.70;;;;;;;9.62;100.00;100730.91;4970416;28;20058;-66
2023/09/25 04:16:14;;;;;;;0.60;0.60;;;;;;;9.62;100.00;100730.91;4964422;28;20550;-67
2023/09/25 04:18:42;;;;;;;0.60;0.60;;;;;;;9.62;100.00;100717.63;4971762;28;20038;-66
2023/09/25 04:21:11;;;;;;;0.60;0.60;;;;;;;9.62;100.00;100722.94;4969389;28;20801;-67
2023/09/25 04:23:37;;;;;;;0.60;0.60;;;;;;;9.52;100.00;100713.41;4972437;28;20026;-66
2023/09/25 04:26:03;;;;;;;0.70;0.70;;;;;;;9.55;100.00;100734.59;4969548;28;20023;-66
2023/09/25 04:28:29;;;;;;;0.60;0.60;;;;;;;9.53;100.00;100731.09;4954229;29;20043;-66
2023/09/25 04:30:57;;;;;;;0.65;0.65;;;;;;;9.45;100.00;100730.34;4954260;29;20495;-66
2023/09/25 04:33:23;;;;;;;0.60;0.60;;;;;;;9.37;100.00;100728.72;4953866;29;20027;-66
2023/09/25 04:35:48;;;;;;;0.60;0.60;;;;;;;9.31;100.00;100729.69;4956013;28;20576;-66
2023/09/25 04:38:14;;;;;;;0.60;0.60;;;;;;;9.30;100.00;100731.47;4953862;29;20121;-67
2023/09/25 04:40:41;;;;;;;0.70;0.70;;;;;;;9.28;100.00;100735.94;4957553;28;20023;-66
2023/09/25 04:43:06;;;;;;;0.60;0.60;;;;;;;9.24;100.00;100734.22;4972063;28;20059;-67
2023/09/25 04:45:32;;;;;;;0.60;0.60;;;;;;;9.17;100.00;100727.25;4970526;28;20433;-66
2023/09/25 04:47:57;;;;;;;0.70;0.70;;;;;;;9.14;100.00;100721.97;4954654;28;20439;-66
2023/09/25 04:50:23;;;;;;;0.60;0.60;;;;;;;9.15;100.00;100717.56;4952654;28;20106;-66
2023/09/25 04:52:49;;;;;;;0.70;0.70;;;;;;;9.12;100.00;100722.91;4968215;28;20037;-66
2023/09/25 04:55:15;;;;;;;0.70;0.70;;;;;;;9.09;100.00;100722.97;4966102;28;20019;-65
2023/09/25 04:57:45;;;;;;;0.70;0.70;;;;;;;9.09;100.00;100730.94;4951623;29;20039;-66
2023/09/25 05:00:21;;;;;;;0.70;0.70;;;;;;;9.05;100.00;100735.41;4950922;28;20037;-65
2023/09/25 05:02:48;;;;;;;0.70;0.70;;;;;;;9.07;100.00;100732.72;4969294;28;20113;-65
2023/09/25 05:05:15;;;;;;;0.70;0.70;;;;;;;9.08;100.00;100738.00;4970306;28;20090;-66
2023/09/25 05:07:42;;;;;;;0.70;0.70;;;;;;;9.04;100.00;100730.13;4970508;28;20109;-66
2023/09/25 05:10:12;;;;;;;0.70;0.70;;;;;;;8.99;100.00;100737.28;4967820;28;20118;-66
2023/09/25 05:12:41;;;;;;;0.70;0.70;;;;;;;8.99;100.00;100743.47;4952186;29;20039;-66
2023/09/25 05:15:07;;;;;;;0.70;0.70;;;;;;;9.02;100.00;100747.84;4952407;28;20383;-65
2023/09/25 05:17:37;;;;;;;0.77;0.77;;;;;;;9.05;100.00;100755.75;4955392;28;20027;-66
2023/09/25 05:20:08;;;;;;;0.70;0.70;;;;;;;9.08;100.00;100748.63;4973569;28;20100;-65
2023/09/25 05:22:34;;;;;;;0.70;0.70;;;;;;;9.09;100.00;100758.31;4976940;28;20126;-66
2023/09/25 05:24:59;;;;;;;0.70;0.70;;;;;;;9.12;100.00;100754.75;4972774;28;20445;-66
2023/09/25 05:27:25;;;;;;;0.70;0.70;;;;;;;9.10;100.00;100752.13;4968755;28;20046;-59
2023/09/25 05:29:51;;;;;;;0.70;0.70;;;;;;;9.13;100.00;100760.03;4954423;28;20023;-60
2023/09/25 05:32:17;;;;;;;0.70;0.70;;;;;;;9.19;100.00;100761.75;4952798;29;20086;-59
2023/09/25 05:34:42;;;;;;;0.70;0.70;;;;;;;9.19;100.00;100765.25;4954774;28;20769;-60
2023/09/25 05:37:08;;;;;;;0.70;0.70;;;;;;;9.20;100.00;100768.78;4951730;29;20119;-61
2023/09/25 05:39:33;;;;;;;0.80;0.80;;;;;;;9.15;100.00;100773.28;4953351;28;20039;-59
2023/09/25 05:41:59;;;;;;;0.70;0.70;;;;;;;9.10;100.00;100761.88;4968633;28;20456;-60
2023/09/25 05:44:24;;;;;;;0.70;0.70;;;;;;;9.09;100.00;100776.03;4970892;28;20030;-60
2023/09/25 05:46:49;;;;;;;0.70;0.70;;;;;;;9.10;100.00;100761.88;4967510;28;20027;-60
2023/09/25 05:49:16;;;;;;;0.75;0.75;;;;;;;9.11;100.00;100769.81;4970848;28;20110;-60
2023/09/25 05:51:44;;;;;;;0.70;0.70;;;;;;;9.12;100.00;100766.28;4968950;28;20055;-59
2023/09/25 05:54:09;;;;;;;0.60;0.60;;;;;;;9.15;100.00;100765.34;4952442;28;20525;-61
2023/09/25 05:56:34;;;;;;;0.70;0.70;;;;;;;9.17;100.00;100764.44;4970685;28;20114;-59
2023/09/25 05:59:00;;;;;;;0.70;0.70;;;;;;;9.25;100.00;100766.94;4970808;28;20110;-61
2023/09/25 06:01:26;;;;;;;0.63;0.63;;;;;;;9.32;100.00;100765.97;4964397;28;20391;-61
2023/09/25 06:03:52;;;;;;;0.70;0.70;;;;;;;9.41;100.00;100768.47;4955900;28;20033;-59
2023/09/25 06:06:17;;;;;;;0.70;0.70;;;;;;;9.49;100.00;100765.69;4955533;28;20015;-60
2023/09/25 06:08:43;;;;;;;0.70;0.70;;;;;;;9.54;100.00;100766.50;4970757;28;20048;-59
2023/09/25 06:11:08;;;;;;;0.63;0.63;;;;;;;9.71;100.00;100767.97;4959291;28;20027;-60
2023/09/25 06:13:34;;;;;;;0.63;0.63;;;;;;;9.89;100.00;100766.75;4950764;28;20059;-60
2023/09/25 06:15:59;;;;;;;0.60;0.60;;;;;;;10.14;100.00;100774.28;4940436;28;20094;-61
2023/09/25 06:18:25;;;;;;;0.60;0.60;;;;;;;10.34;100.00;100771.25;4970751;28;20042;-60
2023/09/25 06:20:51;;;;;;;0.70;0.70;;;;;;;10.53;100.00;100776.16;4968261;28;20050;-61
2023/09/25 06:23:16;;;;;;;0.60;0.60;;;;;;;11.02;100.00;100762.69;4966374;28;20034;-59
2023/09/25 06:25:44;;;;;;;0.60;0.60;;;;;;;12.60;100.00;100766.56;4970546;28;20027;-61
2023/09/25 06:28:10;;;;;;;0.50;0.50;;;;;;;14.82;100.00;100762.69;4952148;28;20484;-60
2023/09/25 06:30:35;;;;;;;0.40;0.40;;;;;;;17.00;89.56;100765.88;4956337;28;20051;-60
2023/09/25 06:33:00;;;;;;;0.40;0.40;;;;;;;18.92;72.41;100765.00;4969356;28;20158;-60
2023/09/25 06:35:26;;;;;;;0.32;0.32;;;;;;;20.44;61.14;100777.72;4971056;28;20050;-61
2023/09/25 06:37:51;;;;;;;0.30;0.30;;;;;;;21.49;52.50;100789.03;4970891;28;20035;-60
2023/09/25 06:40:19;;;;;;;0.30;0.30;;;;;;;22.12;49.60;100790.22;4967347;28;20033;-61
2023/09/25 06:42:44;;;;;;;0.30;0.30;;;;;;;22.30;47.56;100788.97;4970871;28;20710;-60
2023/09/25 06:45:10;;;;;;;0.28;0.28;;;;;;;22.94;46.19;100788.06;4970683;28;20089;-60
2023/09/25 06:47:36;;;;;;;0.25;0.25;;;;;;;23.47;44.72;100778.78;4957473;28;20038;-61
2023/09/25 06:50:03;;;;;;;0.30;0.30;;;;;;;24.04;44.00;100790.78;4951270;29;20031;-60
2023/09/25 06:52:28;;;;;;;0.20;0.20;;;;;;;24.55;42.72;100784.06;4953111;28;20118;-60
2023/09/25 06:54:55;;;;;;;0.20;0.20;;;;;;;24.73;41.86;100781.78;4956593;28;20030;-60
2023/09/25 06:57:20;;;;;;;0.20;0.20;;;;;;;24.55;42.02;100790.38;4970664;28;20026;-60
2023/09/25 06:59:46;;;;;;;0.20;0.20;;;;;;;24.75;42.18;100785.25;4952913;28;20038;-60
2023/09/25 07:02:12;;;;;;;0.20;0.20;;;;;;;24.82;42.32;100784.66;4950351;29;20172;-60
2023/09/25 07:04:37;;;;;;;0.20;0.20;;;;;;;25.17;41.39;100784.56;4949255;29;20031;-60
2023/09/25 07:07:03;;;;;;;0.20;0.20;;;;;;;25.52;41.18;100779.84;4952504;28;20078;-61
2023/09/25 07:09:28;;;;;;;0.15;0.15;;;;;;;25.63;40.66;100777.97;4970559;28;20391;-61
2023/09/25 07:11:54;;;;;;;0.20;0.20;;;;;;;25.85;40.91;100772.47;4970456;28;20065;-61
2023/09/25 07:14:21;;;;;;;0.20;0.20;;;;;;;25.72;40.60;100770.88;4966699;28;20125;-61
2023/09/25 07:16:47;;;;;;;0.20;0.20;;;;;;;25.76;40.05;100775.09;4987697;28;20031;-60
2023/09/25 07:19:12;;;;;;;0.20;0.20;;;;;;;25.90;40.23;100775.69;4970397;28;20387;-61
2023/09/25 07:21:38;;;;;;;0.20;0.20;;;;;;;26.05;40.84;100779.00;4968675;28;20471;-60
2023/09/25 07:24:04;;;;;;;0.20;0.20;;;;;;;26.16;40.27;100780.84;4952930;28;20031;-61
2023/09/25 07:26:30;;;;;;;0.20;0.20;;;;;;;25.65;40.79;100778.72;4954755;28;20484;-61
2023/09/25 07:28:56;;;;;;;0.20;0.20;;;;;;;25.73;40.57;100770.75;4955366;28;20419;-59
2023/09/25 07:31:26;;;;;;;0.20;0.20;;;;;;;25.69;40.74;100774.75;4957417;28;20114;-59
2023/09/25 07:33:54;;;;;;;0.20;0.20;;;;;;;25.58;40.34;100769.34;4955204;29;20022;-59
2023/09/25 07:36:20;;;;;;;0.20;0.20;;;;;;;25.68;41.13;100783.91;4955019;29;20510;-60
2023/09/25 07:38:49;;;;;;;0.20;0.20;;;;;;;25.24;41.30;100781.19;4967930;28;20038;-60
2023/09/25 07:41:15;;;;;;;0.20;0.20;;;;;;;25.35;42.06;100783.97;4974230;28;20063;-61
2023/09/25 07:43:41;;;;;;;0.20;0.20;;;;;;;25.86;41.67;100784.25;4970542;28;20065;-60
2023/09/25 07:46:10;;;;;;;0.13;0.13;;;;;;;25.56;41.13;100787.66;4973641;28;20436;-60
2023/09/25 07:48:38;;;;;;;0.10;0.10;;;;;;;25.34;41.65;100795.81;4969673;28;20090;-64
2023/09/25 07:51:05;;;;;;;0.13;0.13;;;;;;;25.44;41.76;100796.81;4953499;29;20788;-65
2023/09/25 07:53:31;;;;;;;0.20;0.20;;;;;;;25.64;42.14;100795.19;4972164;28;20089;-64
2023/09/25 07:55:57;;;;;;;0.10;0.10;;;;;;;25.74;41.62;100780.69;4971815;28;20431;-65
2023/09/25 07:58:23;;;;;;;0.10;0.10;;;;;;;25.77;41.89;100793.19;4966111;28;20082;-65
2023/09/25 08:00:48;;;;;;;0.10;0.10;;;;;;;25.57;41.80;100781.22;4967808;28;20464;-65
2023/09/25 08:03:17;;;;;;;0.10;0.10;;;;;;;25.58;42.70;100796.59;4953181;29;20035;-65
2023/09/25 08:05:43;;;;;;;0.10;0.10;;;;;;;25.54;42.79;100800.53;4961297;28;20110;-65
2023/09/25 08:08:12;;;;;;;0.10;0.10;;;;;;;24.96;43.58;100803.47;4970510;28;20039;-65
2023/09/25 08:10:41;;;;;;;0.10;0.10;;;;;;;25.00;43.66;100809.53;4973105;28;20450;-64
2023/09/25 08:13:07;;;;;;;0.20;0.20;;;;;;;25.04;43.38;100801.00;4970246;28;20047;-65
2023/09/25 08:15:33;;;;;;;0.10;0.10;;;;;;;25.07;43.77;100811.66;4973257;28;20036;-64
2023/09/25 08:17:59;;;;;;;0.10;0.10;;;;;;;24.92;44.23;100812.88;4971270;28;20580;-64
2023/09/25 08:20:26;;;;;;;0.10;0.10;;;;;;;25.00;43.32;100829.47;4958035;28;20185;-64
2023/09/25 08:22:52;;;;;;;0.10;0.10;;;;;;;24.83;45.32;100820.91;4973134;28;20506;-64
2023/09/25 08:25:18;;;;;;;0.10;0.10;;;;;;;24.55;44.21;100813.97;4972915;28;20031;-64
2023/09/25 08:27:44;;;;;;;0.10;0.10;;;;;;;24.57;45.33;100818.31;4974011;28;20068;-64
2023/09/25 08:30:10;;;;;;;0.10;0.10;;;;;;;24.86;44.95;100815.22;4976890;28;20026;-64
2023/09/25 08:32:36;;;;;;;0.10;0.10;;;;;;;24.99;42.99;100805.94;4970858;28;20067;-64
2023/09/25 08:35:03;;;;;;;0.10;0.10;;;;;;;24.41;45.81;100812.34;4968559;28;20066;-64
2023/09/25 08:37:28;;;;;;;0.10;0.10;;;;;;;24.38;45.38;100818.00;4953824;28;20115;-64
2023/09/25 08:39:55;;;;;;;0.10;0.10;;;;;;;24.60;45.95;100806.31;4971359;28;20115;-64
2023/09/25 08:42:22;;;;;;;0.10;0.10;;;;;;;24.57;44.82;100792.97;4968743;28;20035;-64
2023/09/25 08:44:51;;;;;;;0.10;0.10;;;;;;;24.98;44.94;100796.03;4972032;28;20107;-64
2023/09/25 08:47:18;;;;;;;0.10;0.10;;;;;;;24.82;44.37;100798.25;4964778;28;20071;-64
2023/09/25 08:49:46;;;;;;;0.10;0.10;;;;;;;24.63;44.87;100789.75;4968849;28;20101;-64
2023/09/25 08:52:12;;;;;;;0.10;0.10;;;;;;;24.83;45.09;100794.53;4971910;28;20023;-64
2023/09/25 08:54:38;;;;;;;0.10;0.10;;;;;;;25.21;44.18;100797.78;4971551;28;20061;-63
2023/09/25 08:57:04;;;;;;;0.10;0.10;;;;;;;25.52;42.88;100796.19;4970770;28;20030;-64
2023/09/25 08:59:31;;;;;;;0.10;0.10;;;;;;;25.79;43.62;100794.81;4971970;28;20093;-60
2023/09/25 09:01:57;;;;;;;0.10;0.10;;;;;;;25.96;42.08;100798.84;4971965;28;20033;-60
2023/09/25 09:04:23;;;;;;;0.10;0.10;;;;;;;26.18;41.41;100795.22;4971676;28;20379;-60
2023/09/25 09:06:49;;;;;;;0.10;0.10;;;;;;;26.32;41.86;100800.34;4956561;28;20023;-60
2023/09/25 09:09:15;;;;;;;0.10;0.10;;;;;;;26.47;41.95;100796.31;4972694;28;20042;-60
2023/09/25 09:11:53;;;;;;;0.00;0.00;;;;;;;26.33;40.96;100804.78;4973740;28;20042;-60
2023/09/25 09:14:37;;;;;;;0.10;0.10;;;;;;;26.52;40.90;100799.50;4970668;28;20059;-59
2023/09/25 09:17:06;;;;;;;0.10;0.10;;;;;;;26.45;40.67;100801.03;4972275;28;20398;-60
2023/09/25 09:19:43;;;;;;;0.10;0.10;;;;;;;26.33;39.73;100805.69;4969280;28;20050;-60
2023/09/25 09:22:09;;;;;;;0.10;0.10;;;;;;;26.01;40.66;100796.63;4966794;28;20114;-60
2023/09/25 09:24:39;;;;;;;0.00;0.00;;;;;;;26.18;40.57;100796.06;4971002;28;20030;-60
2023/09/25 09:27:08;;;;;;;0.00;0.00;;;;;;;26.55;40.75;100796.50;4969522;28;20038;-61
2023/09/25 09:29:36;;;;;;;0.10;0.10;;;;;;;27.04;40.12;100791.25;4969014;28;20042;-60
2023/09/25 09:32:01;;;;;;;0.00;0.00;;;;;;;27.28;39.18;100789.13;4961716;28;20142;-60
2023/09/25 09:34:27;;;;;;;0.00;0.00;;;;;;;27.37;40.29;100782.81;4962036;28;20117;-60
2023/09/25 09:36:52;;;;;;;0.00;0.00;;;;;;;27.40;38.22;100785.28;4969998;28;20022;-60
2023/09/25 09:39:24;;;;;;;0.10;0.10;;;;;;;27.37;38.79;100777.34;4964980;28;20555;-60
2023/09/25 09:41:50;;;;;;;0.03;0.03;;;;;;;27.53;39.03;100776.84;4969488;28;20026;-60
2023/09/25 09:44:17;;;;;;;0.00;0.00;;;;;;;27.74;40.61;100759.31;4968742;28;20033;-59
2023/09/25 09:46:44;;;;;;;0.00;0.00;;;;;;;27.97;39.67;100771.78;4969282;28;20714;-60
2023/09/25 09:49:13;;;;;;;0.00;0.00;;;;;;;28.03;39.12;100768.47;4968637;28;20026;-60
2023/09/25 09:51:45;;;;;;;0.00;0.00;;;;;;;27.98;39.35;100762.56;4968116;28;20030;-60
2023/09/25 09:54:17;;;;;;;0.00;0.00;;;;;;;28.02;37.37;100763.16;4969975;28;20382;-60
2023/09/25 09:56:42;;;;;;;0.00;0.00;;;;;;;27.59;38.23;100760.75;4970702;28;20030;-60
2023/09/25 09:59:09;;;;;;;0.00;0.00;;;;;;;27.84;38.62;100760.19;4970536;28;20031;-60
2023/09/25 10:01:36;;;;;;;0.00;0.00;;;;;;;27.63;36.71;100762.19;4965145;28;20463;-60
2023/09/25 10:04:07;;;;;;;0.00;0.00;;;;;;;28.03;37.81;100760.28;4969266;28;20031;-61
2023/09/25 10:06:42;;;;;;;0.00;0.00;;;;;;;28.45;35.53;100742.53;4951432;28;20007;-60
2023/09/25 10:09:10;;;;;;;0.00;0.00;;;;;;;28.77;35.45;100752.31;4967829;28;20155;-63
2023/09/25 10:11:45;;;;;;;0.00;0.00;;;;;;;28.89;35.20;100748.41;5093895;27;20589;-64
2023/09/25 10:14:11;;;;;;;0.00;0.00;;;;;;;29.14;35.63;100754.09;5095333;28;20027;-64
2023/09/25 10:16:57;;;;;;;0.00;0.00;;;;;;;29.23;35.51;100746.84;5105327;28;20020;-64
2023/09/25 10:19:35;;;;;;;0.00;0.00;;;;;;;29.49;34.74;100747.88;5088189;28;20039;-64
2023/09/25 10:22:20;;;;;;;0.00;0.00;;;;;;;29.62;34.82;100746.50;5085707;28;20025;-64
2023/09/25 10:24:59;;;;;;;0.00;0.00;;;;;;;29.67;33.79;100747.97;5085804;28;20043;-64
2023/09/25 10:27:25;;;;;;;0.00;0.00;;;;;;;29.48;34.64;100746.16;5087611;28;20073;-64
2023/09/25 10:30:06;;;;;;;0.00;0.00;;;;;;;29.57;34.40;100751.56;5086722;28;20036;-64
2023/09/25 10:32:32;;;;;;;0.00;0.00;;;;;;;29.62;36.04;100742.91;5085908;28;20199;-64
2023/09/25 10:35:17;;;;;;;0.00;0.00;;;;;;;29.79;35.93;100743.97;5088622;28;20032;-64
2023/09/25 10:38:25;;;;;;;0.00;0.00;;;;;;;29.88;35.12;100732.94;5100961;28;20024;-64
2023/09/25 10:40:52;;;;;;;0.00;0.00;;;;;;;30.00;35.98;100736.31;5098269;28;20406;-64
2023/09/25 10:43:20;;;;;;;0.00;0.00;;;;;;;30.18;34.24;100735.28;5092051;28;20034;-64
2023/09/25 10:45:46;;;;;;;0.00;0.00;;;;;;;30.27;34.10;100737.13;5094823;28;20118;-64
2023/09/25 10:48:12;;;;;;;0.00;0.00;;;;;;;29.93;35.27;100741.56;5099787;28;20028;-65
2023/09/25 10:50:43;;;;;;;0.00;0.00;;;;;;;29.57;33.91;100728.78;5092159;28;20391;-64
2023/09/25 10:53:09;;;;;;;0.00;0.00;;;;;;;29.61;34.97;100735.69;5085438;28;20020;-65
2023/09/25 10:55:35;;;;;;;0.00;0.00;;;;;;;29.82;35.35;100739.03;5096646;28;20032;-65
2023/09/25 10:58:06;;;;;;;0.00;0.00;;;;;;;30.07;35.55;100730.03;5091308;28;20468;-65
2023/09/25 11:00:32;;;;;;;0.00;0.00;;;;;;;30.42;34.30;100721.81;5085509;28;20024;-64
2023/09/25 11:02:59;;;;;;;0.00;0.00;;;;;;;30.63;33.80;100733.31;5103428;28;20494;-65
2023/09/25 11:05:25;;;;;;;0.00;0.00;;;;;;;30.70;33.47;100722.53;5103370;28;20023;-65
2023/09/25 11:07:51;;;;;;;0.00;0.00;;;;;;;30.47;33.23;100719.44;5095087;28;20032;-66
2023/09/25 11:10:17;;;;;;;0.00;0.00;;;;;;;30.41;33.95;100713.75;5087720;28;20048;-65
2023/09/25 11:12:43;;;;;;;0.00;0.00;;;;;;;30.40;34.19;100706.50;5089661;28;20096;-64
2023/09/25 11:15:12;;;;;;;0.00;0.00;;;;;;;30.77;33.46;100713.50;5093331;28;20028;-64
2023/09/25 11:17:39;;;;;;;0.00;0.00;;;;;;;30.97;32.95;100716.03;5088819;28;20024;-65
2023/09/25 11:20:11;;;;;;;0.00;0.00;;;;;;;30.79;33.01;100705.13;5103423;28;20023;-65